Time;durP1;ratioP1;P1;durP2;ratioP2;P2;SDS_P1;SDS_P2;PMS_P1;PMS_P2;Temp;Humidity;BMP_temperature;BMP_pressure;BME280_temperature;BME280_humidity;BME280_pressure;Samples;Min_cycle;Max_cycle;Signal;HPM_P1;HPM_P2
2022/12/10 00:01:22;;;;;;;4.15;3.25;;;;;;;19.35;47.38;99647.94;5035502;28;20053;-77
2022/12/10 00:03:49;;;;;;;4.85;3.00;;;;;;;19.35;47.27;99644.41;5036470;28;20054;-77
2022/12/10 00:06:20;;;;;;;5.00;3.67;;;;;;;19.35;47.17;99641.72;5035086;28;20378;-78
2022/12/10 00:08:47;;;;;;;4.25;2.92;;;;;;;19.34;47.06;99629.31;5036587;28;20049;-78
2022/12/10 00:11:16;;;;;;;5.05;3.20;;;;;;;19.34;47.09;99638.22;5036372;28;20049;-77
2022/12/10 00:13:45;;;;;;;3.75;3.22;;;;;;;19.33;47.15;99628.47;5036388;28;20052;-76
2022/12/10 00:16:15;;;;;;;3.78;2.97;;;;;;;19.34;46.99;99624.78;5036114;28;20052;-77
2022/12/10 00:18:42;;;;;;;4.15;3.08;;;;;;;19.33;46.92;99617.75;5036122;28;20053;-77
2022/12/10 00:21:14;;;;;;;5.32;3.42;;;;;;;19.33;46.96;99615.06;5035809;28;20406;-77
2022/12/10 00:23:42;;;;;;;7.32;3.25;;;;;;;19.32;46.80;99626.78;5036272;28;20505;-77
2022/12/10 00:26:18;;;;;;;4.13;3.05;;;;;;;19.32;46.94;99631.31;5036041;28;20046;-77
2022/12/10 00:28:47;;;;;;;4.95;3.42;;;;;;;19.32;46.92;99623.25;5036233;28;20041;-77
2022/12/10 00:31:41;;;;;;;3.97;3.10;;;;;;;19.32;46.65;99621.41;5034996;28;20044;-77
2022/12/10 00:34:11;;;;;;;5.18;3.20;;;;;;;19.31;46.66;99633.16;5030563;28;20060;-77
2022/12/10 00:36:45;;;;;;;5.50;3.40;;;;;;;19.30;46.82;99612.69;5034246;28;20049;-77
2022/12/10 00:39:16;;;;;;;4.43;3.25;;;;;;;19.30;46.81;99620.75;5035806;28;20045;-77
2022/12/10 00:41:44;;;;;;;4.30;3.15;;;;;;;19.29;46.65;99629.81;5033122;28;20049;-77
2022/12/10 00:44:12;;;;;;;5.22;3.25;;;;;;;19.30;46.83;99619.91;5035937;28;20052;-77
2022/12/10 00:46:39;;;;;;;6.13;3.70;;;;;;;19.29;46.77;99610.19;5035620;28;20041;-77
2022/12/10 00:49:08;;;;;;;4.63;3.42;;;;;;;19.28;46.74;99628.09;5035433;28;20052;-77
2022/12/10 00:51:35;;;;;;;4.05;2.88;;;;;;;19.27;46.81;99623.75;5034263;28;20057;-77
2022/12/10 00:54:03;;;;;;;4.72;3.17;;;;;;;19.28;46.71;99620.06;5035254;28;20057;-77
2022/12/10 00:56:32;;;;;;;4.72;3.00;;;;;;;19.28;46.78;99612.00;5033514;28;20488;-77
2022/12/10 00:59:00;;;;;;;4.88;3.60;;;;;;;19.26;46.85;99598.75;5050954;28;20053;-77
2022/12/10 01:01:40;;;;;;;4.70;3.22;;;;;;;19.26;46.87;99606.81;5033810;28;20465;-77
2022/12/10 01:04:18;;;;;;;4.03;2.95;;;;;;;19.26;46.94;99606.81;5033645;28;20116;-77
2022/12/10 01:06:53;;;;;;;6.93;3.58;;;;;;;19.26;46.82;99605.97;5034307;28;20060;-77
2022/12/10 01:09:25;;;;;;;5.53;3.50;;;;;;;19.26;46.94;99616.69;5035589;28;20037;-77
2022/12/10 01:11:54;;;;;;;5.03;3.08;;;;;;;19.26;47.02;99614.03;5035213;28;20045;-77
2022/12/10 01:14:29;;;;;;;4.05;2.70;;;;;;;19.25;47.17;99605.13;5035030;28;20049;-77
2022/12/10 01:16:58;;;;;;;4.45;2.88;;;;;;;19.24;47.05;99602.59;5034679;28;20056;-77
2022/12/10 01:19:26;;;;;;;4.35;3.08;;;;;;;19.25;46.92;99589.03;5033683;28;20429;-77
2022/12/10 01:21:54;;;;;;;4.38;3.13;;;;;;;19.25;46.83;99604.28;5035036;28;20045;-77
2022/12/10 01:24:23;;;;;;;3.70;2.50;;;;;;;19.24;46.99;99611.50;5033804;28;20057;-77
2022/12/10 01:26:50;;;;;;;4.72;3.20;;;;;;;19.25;46.90;99615.03;5033846;28;20046;-77
2022/12/10 01:29:18;;;;;;;4.82;3.15;;;;;;;19.25;47.06;99609.66;5035327;28;20045;-77
2022/12/10 01:31:49;;;;;;;4.95;3.05;;;;;;;19.25;46.71;99598.94;5032766;28;20393;-77
2022/12/10 01:34:17;;;;;;;5.15;2.45;;;;;;;19.24;47.16;99618.69;5035409;28;20048;-77
2022/12/10 01:36:47;;;;;;;4.20;2.83;;;;;;;19.24;47.11;99605.28;5033333;28;20049;-77
2022/12/10 01:39:16;;;;;;;5.20;3.40;;;;;;;19.23;46.94;99600.91;5033592;28;20053;-77
2022/12/10 01:41:46;;;;;;;6.07;2.53;;;;;;;19.23;47.24;99604.44;5033501;28;20049;-77
2022/12/10 01:44:16;;;;;;;4.60;3.15;;;;;;;19.23;46.96;99596.38;5035313;28;20053;-78
2022/12/10 01:46:50;;;;;;;4.45;2.75;;;;;;;19.23;47.26;99600.91;5032773;28;20049;-77
2022/12/10 01:49:26;;;;;;;5.50;3.00;;;;;;;19.22;47.04;99608.13;5034683;28;20049;-77
2022/12/10 01:51:55;;;;;;;3.90;2.65;;;;;;;19.21;47.17;99586.84;5033569;28;20049;-77
2022/12/10 01:54:32;;;;;;;4.07;2.78;;;;;;;19.21;47.20;99573.44;5033025;28;20056;-77
2022/12/10 01:57:01;;;;;;;3.72;2.58;;;;;;;19.21;47.13;99598.41;5034542;28;20045;-77
2022/12/10 01:59:30;;;;;;;3.88;2.42;;;;;;;19.21;46.84;99603.78;5033066;28;20053;-77
2022/12/10 02:02:00;;;;;;;4.07;3.03;;;;;;;19.21;46.95;99594.88;5034253;28;20045;-77
2022/12/10 02:04:33;;;;;;;4.63;2.88;;;;;;;19.21;47.03;99600.25;5034497;28;20370;-77
2022/12/10 02:07:34;;;;;;;3.40;2.63;;;;;;;19.20;46.90;99602.09;5033278;28;20056;-77
2022/12/10 02:10:31;;;;;;;3.95;3.10;;;;;;;19.21;46.81;99589.53;5032899;28;20060;-77
2022/12/10 02:13:10;;;;;;;3.70;2.67;;;;;;;19.20;47.03;99591.38;5033239;28;20057;-78
2022/12/10 02:15:50;;;;;;;3.75;2.88;;;;;;;19.20;47.09;99572.59;5034509;28;20053;-77
2022/12/10 02:18:29;;;;;;;4.00;2.72;;;;;;;19.19;46.89;99600.41;5032789;28;20405;-77
2022/12/10 02:21:03;;;;;;;3.78;2.85;;;;;;;19.20;46.98;99590.50;5034054;28;20041;-77
2022/12/10 02:23:37;;;;;;;4.93;3.22;;;;;;;19.19;46.95;99592.34;5034029;28;20057;-77
2022/12/10 02:26:22;;;;;;;4.50;3.20;;;;;;;19.19;47.05;99596.88;5048944;28;20049;-77
2022/12/10 02:28:55;;;;;;;4.97;2.90;;;;;;;19.18;46.81;99595.19;5034032;28;20049;-77
2022/12/10 02:31:26;;;;;;;3.63;2.63;;;;;;;19.19;46.81;99589.66;5034356;28;20053;-77
2022/12/10 02:33:58;;;;;;;4.07;2.90;;;;;;;19.18;46.91;99588.00;5031227;28;20287;-77
2022/12/10 02:36:30;;;;;;;4.60;3.20;;;;;;;19.18;47.09;99587.16;5033821;28;20049;-77
2022/12/10 02:39:01;;;;;;;3.65;2.75;;;;;;;19.16;47.06;99603.41;5032703;28;20413;-78
2022/12/10 02:41:34;;;;;;;3.95;2.80;;;;;;;19.17;47.18;99588.16;5032299;28;20057;-77
2022/12/10 02:44:05;;;;;;;3.53;2.67;;;;;;;19.16;47.09;99587.31;5033968;28;20473;-77
2022/12/10 02:46:36;;;;;;;5.80;2.83;;;;;;;19.16;47.28;99597.19;5032536;28;20054;-77
2022/12/10 02:49:08;;;;;;;4.30;2.83;;;;;;;19.15;47.30;99588.31;5032980;28;20414;-78
2022/12/10 02:51:36;;;;;;;5.05;3.03;;;;;;;19.16;47.09;99576.59;5032227;28;20278;-78
2022/12/10 02:54:07;;;;;;;4.05;2.65;;;;;;;19.15;47.36;99569.53;5033848;28;20052;-77
2022/12/10 02:56:44;;;;;;;4.35;2.17;;;;;;;19.14;47.30;99567.84;5032278;28;20054;-77
2022/12/10 02:59:33;;;;;;;3.38;2.53;;;;;;;19.15;47.35;99568.69;5032603;28;20050;-78
2022/12/10 03:02:12;;;;;;;5.32;3.28;;;;;;;19.14;47.31;99559.81;5034121;28;20048;-78
2022/12/10 03:04:48;;;;;;;3.58;2.55;;;;;;;19.14;47.29;99546.38;5032781;28;20409;-77
2022/12/10 03:07:23;;;;;;;3.92;2.22;;;;;;;19.14;47.12;99546.38;5037512;28;20045;-77
2022/12/10 03:10:01;;;;;;;4.15;2.83;;;;;;;19.14;47.21;99543.72;5038221;28;20489;-77
2022/12/10 03:12:35;;;;;;;3.65;2.63;;;;;;;19.13;47.37;99539.34;5038262;28;20045;-77
2022/12/10 03:15:06;;;;;;;3.53;2.55;;;;;;;19.14;47.58;99534.81;5053537;28;20508;-77
2022/12/10 03:17:36;;;;;;;3.75;2.70;;;;;;;19.13;47.30;99512.53;5036120;28;20068;-77
2022/12/10 03:20:08;;;;;;;3.83;2.65;;;;;;;19.13;47.36;99528.63;5037394;28;20041;-77
2022/12/10 03:22:40;;;;;;;5.20;2.42;;;;;;;19.14;47.36;99542.88;5037497;28;20049;-77
2022/12/10 03:25:13;;;;;;;4.25;2.65;;;;;;;19.13;47.46;99539.34;5036957;28;20049;-77
2022/12/10 03:27:41;;;;;;;5.40;2.30;;;;;;;19.13;47.10;99528.63;5037394;28;20045;-77
2022/12/10 03:30:09;;;;;;;3.78;2.05;;;;;;;19.13;47.07;99541.19;5038172;28;20050;-78
2022/12/10 03:32:37;;;;;;;4.22;2.75;;;;;;;19.12;47.43;99526.94;5037354;28;20041;-77
2022/12/10 03:35:06;;;;;;;4.45;2.72;;;;;;;19.11;47.29;99514.50;5036620;28;20049;-77
2022/12/10 03:37:34;;;;;;;4.32;2.75;;;;;;;19.12;47.39;99510.84;5037415;28;20073;-77
2022/12/10 03:40:04;;;;;;;3.58;2.50;;;;;;;19.11;47.24;99508.31;5037236;28;20041;-77
2022/12/10 03:42:31;;;;;;;3.55;2.50;;;;;;;19.11;47.30;99506.47;5037045;28;20048;-77
2022/12/10 03:44:59;;;;;;;4.57;2.50;;;;;;;19.11;47.30;99514.50;5036636;28;20053;-77
2022/12/10 03:47:26;;;;;;;4.97;2.83;;;;;;;19.11;47.34;99517.19;5037128;28;20374;-77
2022/12/10 03:49:54;;;;;;;3.53;2.65;;;;;;;19.11;47.17;99511.00;5037057;28;20042;-77
2022/12/10 03:52:21;;;;;;;4.43;2.38;;;;;;;19.11;47.29;99517.19;5036444;28;20037;-77
2022/12/10 03:54:49;;;;;;;5.63;2.75;;;;;;;19.10;47.34;99520.88;5036544;28;20077;-77
2022/12/10 03:57:17;;;;;;;5.30;3.25;;;;;;;19.10;47.30;99514.69;5037309;28;20045;-77
2022/12/10 03:59:44;;;;;;;4.50;2.70;;;;;;;19.10;47.46;99517.38;5036343;28;20049;-78
2022/12/10 04:02:11;;;;;;;3.75;2.40;;;;;;;19.09;47.45;99516.53;5036573;28;20049;-77
2022/12/10 04:04:39;;;;;;;4.53;2.85;;;;;;;19.09;47.57;99508.50;5036743;28;20045;-77
2022/12/10 04:07:06;;;;;;;5.30;2.90;;;;;;;19.09;47.41;99496.91;5036460;28;20049;-77
2022/12/10 04:09:34;;;;;;;4.22;2.65;;;;;;;19.09;47.71;99494.25;5036661;28;20049;-77
2022/12/10 04:12:01;;;;;;;4.00;2.70;;;;;;;19.09;47.50;99499.59;5036507;28;20056;-77
2022/12/10 04:17:15;;;;;;;4.47;2.47;;;;;;;19.08;47.63;99484.50;5035280;28;20049;-77
2022/12/10 04:19:43;;;;;;;3.38;2.58;;;;;;;19.09;47.48;99496.91;5035021;28;20421;-77
2022/12/10 04:27:44;;;;;;;4.70;2.88;;;;;;;19.08;47.51;99501.44;4975511;28;20058;-77
2022/12/10 04:30:12;;;;;;;4.43;2.95;;;;;;;19.08;47.52;99506.81;4975634;28;20070;-77
2022/12/10 04:32:39;;;;;;;3.28;2.53;;;;;;;19.08;47.48;99490.72;4975016;28;20055;-77
2022/12/10 04:35:07;;;;;;;3.88;2.55;;;;;;;19.08;47.53;99493.41;4957660;28;20531;-77
2022/12/10 04:37:35;;;;;;;6.78;2.83;;;;;;;19.08;47.54;99493.41;4975380;28;20051;-77
2022/12/10 04:40:03;;;;;;;3.38;2.70;;;;;;;19.08;47.48;99503.25;4974412;28;20051;-77
2022/12/10 04:42:31;;;;;;;3.72;2.47;;;;;;;19.08;47.65;99492.53;4974759;28;20054;-77
2022/12/10 04:44:58;;;;;;;4.15;2.42;;;;;;;19.06;47.53;99478.47;4975105;28;20054;-77
2022/12/10 04:47:25;;;;;;;3.55;2.53;;;;;;;19.06;47.64;99489.19;4975334;28;20055;-77
2022/12/10 04:49:52;;;;;;;3.35;2.25;;;;;;;19.06;47.51;99486.50;4975191;28;20514;-77
2022/12/10 04:52:20;;;;;;;3.20;2.20;;;;;;;19.07;47.68;99482.81;4974761;28;20055;-77
2022/12/10 04:54:47;;;;;;;4.05;2.53;;;;;;;19.05;47.59;99472.25;4974735;28;20051;-77
2022/12/10 04:57:15;;;;;;;5.25;3.05;;;;;;;19.06;47.69;99475.78;4975250;28;20557;-77
2022/12/10 04:59:43;;;;;;;5.18;3.10;;;;;;;19.05;47.67;99474.09;4974730;28;20065;-77
2022/12/10 05:02:10;;;;;;;4.03;2.97;;;;;;;19.05;47.84;99472.25;4974228;28;20061;-77
2022/12/10 05:04:37;;;;;;;3.92;2.60;;;;;;;19.05;47.67;99466.06;4989624;28;20057;-78
2022/12/10 05:07:05;;;;;;;3.60;2.58;;;;;;;19.04;47.68;99465.22;5015660;28;20045;-77
2022/12/10 05:09:32;;;;;;;3.47;2.47;;;;;;;19.04;47.69;99459.88;5015950;28;20053;-78
2022/12/10 05:12:00;;;;;;;3.95;2.33;;;;;;;19.03;47.72;99455.47;5015670;28;20045;-78
2022/12/10 05:14:27;;;;;;;4.00;2.30;;;;;;;19.03;47.55;99463.53;5015875;28;20041;-78
2022/12/10 05:16:54;;;;;;;3.38;2.35;;;;;;;19.03;47.62;99464.34;5015697;28;20050;-77
2022/12/10 05:19:23;;;;;;;3.50;2.33;;;;;;;19.01;47.25;99461.00;5015784;28;20050;-77
2022/12/10 05:24:37;;;;;;;3.95;2.30;;;;;;;19.02;47.51;99461.84;5015495;28;20057;-77
2022/12/10 05:27:05;;;;;;;3.50;2.30;;;;;;;19.02;47.39;99467.22;5014841;28;20053;-77
2022/12/10 05:29:32;;;;;;;4.65;2.55;;;;;;;19.02;47.31;99464.53;5015067;28;20034;-77
2022/12/10 05:32:00;;;;;;;3.60;2.28;;;;;;;19.01;47.73;99463.69;5015064;28;20466;-77
2022/12/10 05:34:28;;;;;;;3.60;2.38;;;;;;;19.02;47.41;99456.50;5015688;28;20046;-77
2022/12/10 05:36:55;;;;;;;3.35;2.50;;;;;;;19.01;47.65;99458.34;5014379;28;20037;-78
2022/12/10 05:39:22;;;;;;;4.18;2.85;;;;;;;19.02;47.60;99459.16;5015143;28;20050;-78
2022/12/10 05:41:50;;;;;;;4.10;2.72;;;;;;;19.01;47.45;99462.88;5029589;28;20410;-79
2022/12/10 05:44:17;;;;;;;3.97;2.95;;;;;;;19.01;47.55;99457.50;5035457;28;20046;-77
2022/12/10 05:46:44;;;;;;;3.80;2.50;;;;;;;19.00;47.41;99453.16;5035183;28;20390;-77
2022/12/10 05:49:12;;;;;;;3.50;2.50;;;;;;;19.00;47.42;99451.31;5034727;28;20528;-77
2022/12/10 05:51:39;;;;;;;4.53;2.75;;;;;;;18.99;47.49;99448.75;5034925;28;20045;-77
2022/12/10 05:54:08;;;;;;;4.18;2.55;;;;;;;19.00;47.55;99461.19;5034693;28;20042;-77
2022/12/10 05:56:37;;;;;;;3.55;2.53;;;;;;;18.99;47.42;99471.06;5034959;28;20381;-77
2022/12/10 05:59:05;;;;;;;3.33;2.53;;;;;;;19.00;47.58;99471.91;5034392;28;20052;-77
2022/12/10 06:01:39;;;;;;;4.32;2.78;;;;;;;19.01;47.63;99470.91;5034226;28;20500;-77
2022/12/10 06:04:06;;;;;;;4.22;3.08;;;;;;;19.02;47.38;99475.25;5033118;28;20046;-77
2022/12/10 06:06:36;;;;;;;4.60;2.53;;;;;;;19.02;47.59;99470.72;5034071;28;20057;-77
2022/12/10 06:09:06;;;;;;;4.22;2.70;;;;;;;19.02;47.57;99480.63;5033997;28;20512;-77
2022/12/10 06:11:33;;;;;;;4.07;2.60;;;;;;;19.02;47.47;99475.25;5032310;28;20054;-77
2022/12/10 06:14:01;;;;;;;4.57;2.67;;;;;;;19.02;47.36;99472.59;5034346;28;20045;-77
2022/12/10 06:16:29;;;;;;;5.65;2.65;;;;;;;19.02;47.67;99476.09;5033922;28;20401;-76
2022/12/10 06:18:58;;;;;;;6.82;2.80;;;;;;;19.03;47.48;99482.28;5034137;28;20044;-79
2022/12/10 06:21:26;;;;;;;3.42;2.53;;;;;;;19.03;47.66;99475.09;5033946;28;20050;-77
2022/12/10 06:23:53;;;;;;;3.45;2.72;;;;;;;19.03;47.68;99480.44;5033503;28;20496;-77
2022/12/10 06:26:25;;;;;;;4.57;2.55;;;;;;;19.02;47.58;99478.78;5034158;28;20072;-77
2022/12/10 06:28:53;;;;;;;4.03;2.63;;;;;;;19.01;47.67;99470.91;5034000;28;20060;-76
2022/12/10 06:31:21;;;;;;;5.13;2.45;;;;;;;19.01;47.72;99470.91;5034124;28;20413;-77
2022/12/10 06:33:48;;;;;;;3.85;2.78;;;;;;;19.00;47.76;99475.44;5034029;28;20425;-77
2022/12/10 06:36:17;;;;;;;4.97;2.60;;;;;;;19.00;47.77;99488.00;5033818;28;20045;-77
2022/12/10 06:38:44;;;;;;;3.78;2.78;;;;;;;19.00;47.78;99479.97;5033283;28;20050;-77
2022/12/10 06:41:14;;;;;;;5.68;2.55;;;;;;;18.99;47.77;99489.81;5033252;28;20474;-77
2022/12/10 06:43:41;;;;;;;4.95;2.60;;;;;;;18.99;47.78;99489.00;5034096;28;20413;-78
2022/12/10 06:46:12;;;;;;;3.75;2.83;;;;;;;18.99;47.72;99497.88;5033887;28;20053;-77
2022/12/10 06:48:41;;;;;;;4.43;2.78;;;;;;;18.99;47.73;99491.66;5034031;28;20049;-78
2022/12/10 06:51:09;;;;;;;4.07;2.72;;;;;;;18.98;47.69;99493.53;5034067;28;20048;-78
2022/12/10 06:53:37;;;;;;;4.82;3.40;;;;;;;18.98;47.85;99500.72;5032066;28;20041;-77
2022/12/10 06:56:06;;;;;;;4.53;2.83;;;;;;;18.96;47.66;99506.25;5034011;28;20496;-77
2022/12/10 06:58:35;;;;;;;3.45;2.53;;;;;;;18.97;47.66;99499.06;5033728;28;20473;-77
2022/12/10 07:01:13;;;;;;;4.60;2.47;;;;;;;18.97;47.64;99493.69;5034130;28;20045;-78
2022/12/10 07:03:41;;;;;;;3.55;2.55;;;;;;;18.97;47.67;99499.88;5031721;28;20045;-77
2022/12/10 07:06:10;;;;;;;4.22;2.72;;;;;;;18.96;47.78;99497.38;5033306;28;20393;-77
2022/12/10 07:08:38;;;;;;;3.58;2.78;;;;;;;18.95;47.65;99496.50;5033499;28;20048;-77
2022/12/10 07:11:07;;;;;;;3.95;2.35;;;;;;;18.96;47.48;99489.34;5033206;28;20045;-77
2022/12/10 07:13:35;;;;;;;3.58;2.58;;;;;;;18.96;47.60;99492.03;5033575;28;20049;-77
2022/12/10 07:16:11;;;;;;;4.57;3.00;;;;;;;18.94;47.38;99492.16;5033629;28;20056;-77
2022/12/10 07:18:38;;;;;;;2.90;2.00;;;;;;;18.95;47.45;99477.75;5033335;28;20045;-77
2022/12/10 07:21:20;;;;;;;4.10;2.83;;;;;;;18.95;47.56;99475.06;5033484;28;20052;-76
2022/12/10 07:23:49;;;;;;;4.40;2.88;;;;;;;18.96;47.57;99478.59;5033303;28;20516;-77
2022/12/10 07:26:16;;;;;;;4.25;2.50;;;;;;;18.96;47.24;99481.28;5033881;28;20061;-77
2022/12/10 07:28:45;;;;;;;3.72;2.53;;;;;;;18.96;47.51;99489.34;5033681;28;20050;-77
2022/12/10 07:31:21;;;;;;;3.08;2.38;;;;;;;18.96;47.60;99490.19;5033644;28;20076;-77
2022/12/10 07:33:50;;;;;;;6.25;3.17;;;;;;;18.96;47.51;99479.44;5031537;28;20061;-77
2022/12/10 07:36:19;;;;;;;5.18;2.63;;;;;;;18.96;47.53;99475.94;5033192;28;20401;-77
2022/12/10 07:38:46;;;;;;;3.72;2.88;;;;;;;18.97;47.53;99472.22;5033247;28;20129;-77
2022/12/10 07:41:14;;;;;;;4.55;2.50;;;;;;;18.96;47.55;99474.09;5033638;28;20391;-77
2022/12/10 07:43:43;;;;;;;3.67;2.60;;;;;;;18.96;47.56;99467.88;5033667;28;20072;-77
2022/12/10 07:46:15;;;;;;;3.58;2.42;;;;;;;18.95;47.56;99466.19;5032824;28;20057;-77
2022/12/10 07:48:44;;;;;;;3.60;2.80;;;;;;;18.96;47.26;99465.19;5033435;28;20045;-77
2022/12/10 07:51:13;;;;;;;5.75;2.67;;;;;;;18.96;47.56;99478.59;5033573;28;20505;-77
2022/12/10 07:53:41;;;;;;;3.25;2.20;;;;;;;18.95;47.44;99468.88;5037492;28;20041;-78
2022/12/10 07:56:08;;;;;;;4.18;2.80;;;;;;;18.94;47.49;99470.72;5035802;28;20061;-77
2022/12/10 07:58:36;;;;;;;4.47;3.03;;;;;;;18.95;47.56;99482.28;5036945;28;20408;-77
2022/12/10 08:01:08;;;;;;;3.65;2.53;;;;;;;18.94;47.56;99478.75;5037081;28;20045;-77
2022/12/10 08:03:36;;;;;;;4.23;2.47;;;;;;;18.94;47.23;99478.75;5036385;28;20057;-77
2022/12/10 08:06:06;;;;;;;4.43;2.75;;;;;;;18.95;47.35;99484.94;5036436;28;20042;-77
2022/12/10 08:08:35;;;;;;;4.80;2.55;;;;;;;18.95;47.66;99493.84;5036446;28;20060;-77
2022/12/10 08:11:03;;;;;;;5.13;3.03;;;;;;;18.95;47.56;99493.00;5036838;28;20053;-77
2022/12/10 08:13:31;;;;;;;4.75;2.70;;;;;;;18.94;47.44;99489.47;5036028;28;20405;-76
2022/12/10 08:16:06;;;;;;;3.45;2.55;;;;;;;18.94;47.56;99497.53;5036035;28;20504;-77
2022/12/10 08:18:35;;;;;;;3.83;2.63;;;;;;;18.94;47.49;99510.09;5036391;28;20056;-77
2022/12/10 08:21:13;;;;;;;4.13;2.67;;;;;;;18.94;47.63;99500.22;5036082;28;20057;-77
2022/12/10 08:23:41;;;;;;;3.92;2.65;;;;;;;18.94;47.41;99500.22;5035856;28;20465;-77
2022/12/10 08:26:14;;;;;;;4.10;2.58;;;;;;;18.94;47.43;99491.31;5036580;28;20049;-78
2022/12/10 08:28:42;;;;;;;5.10;2.78;;;;;;;18.94;47.62;99491.31;5036127;28;20046;-77
2022/12/10 08:31:11;;;;;;;4.05;2.28;;;;;;;18.92;47.63;99486.13;5036737;28;20512;-77
2022/12/10 08:33:40;;;;;;;4.28;2.47;;;;;;;18.92;47.42;99488.81;5036399;28;20041;-82
2022/12/10 08:36:10;;;;;;;9.80;8.57;;;;;;;18.82;44.09;99480.03;5035935;28;20049;-77
2022/12/10 08:38:38;;;;;;;11.15;9.73;;;;;;;18.58;43.52;99491.47;5035184;28;20041;-77
2022/12/10 08:41:08;;;;;;;11.98;10.75;;;;;;;18.40;43.43;99488.84;5035466;28;20501;-77
2022/12/10 08:43:35;;;;;;;13.20;10.63;;;;;;;18.28;43.34;99496.31;5035618;28;20404;-77
2022/12/10 08:46:03;;;;;;;12.75;10.70;;;;;;;18.31;44.38;99499.66;5035528;28;20046;-78
2022/12/10 08:48:33;;;;;;;12.63;10.63;;;;;;;18.33;44.17;99500.34;5036681;28;20041;-83
2022/12/10 08:51:01;;;;;;;8.20;7.18;;;;;;;18.37;45.13;99494.53;5036505;28;20056;-80
2022/12/10 08:53:29;;;;;;;6.28;5.15;;;;;;;18.44;46.20;99500.09;5036479;28;20045;-79
2022/12/10 08:55:58;;;;;;;5.53;4.38;;;;;;;18.48;46.81;99501.47;5035914;28;20046;-79
2022/12/10 08:58:26;;;;;;;5.38;4.05;;;;;;;18.53;46.97;99504.50;5035892;28;20052;-79
2022/12/10 09:00:53;;;;;;;5.95;4.07;;;;;;;18.57;46.99;99502.34;5036047;28;20049;-79
2022/12/10 09:03:21;;;;;;;4.63;3.65;;;;;;;18.60;47.17;99494.84;5034582;28;20405;-79
2022/12/10 09:05:48;;;;;;;5.60;3.75;;;;;;;18.63;47.32;99501.69;5035512;28;20052;-78
2022/12/10 09:08:16;;;;;;;4.75;3.80;;;;;;;18.65;47.01;99492.50;5034628;28;20389;-78
2022/12/10 09:10:43;;;;;;;6.07;3.80;;;;;;;18.68;47.17;99483.31;5035019;28;20053;-79
2022/12/10 09:13:11;;;;;;;7.28;4.10;;;;;;;18.69;47.20;99491.19;5036104;28;20083;-78
2022/12/10 09:15:38;;;;;;;4.78;3.40;;;;;;;18.71;47.25;99483.00;5035438;28;20042;-78
2022/12/10 09:18:06;;;;;;;5.40;3.78;;;;;;;18.73;47.35;99481.03;5035534;28;20056;-81
2022/12/10 09:20:33;;;;;;;4.45;3.50;;;;;;;18.75;47.28;99484.38;5035212;28;20048;-77
2022/12/10 09:23:01;;;;;;;5.63;3.40;;;;;;;18.74;47.33;99488.88;5034785;28;20481;-77
2022/12/10 09:25:28;;;;;;;5.38;3.10;;;;;;;18.76;47.26;99497.63;5034695;28;20041;-77
2022/12/10 09:27:55;;;;;;;5.28;3.42;;;;;;;18.78;46.91;99484.06;5035340;28;20045;-77
2022/12/10 09:30:23;;;;;;;5.57;4.03;;;;;;;18.78;46.85;99476.84;5034852;28;20052;-77
2022/12/10 09:32:50;;;;;;;6.65;4.25;;;;;;;18.78;46.79;99484.88;5034608;28;20425;-77
2022/12/10 09:35:21;;;;;;;5.03;3.80;;;;;;;18.78;46.67;99474.16;5034991;28;20053;-77
2022/12/10 09:37:48;;;;;;;6.20;3.40;;;;;;;18.80;47.08;99487.44;5033189;28;20049;-77
2022/12/10 09:40:18;;;;;;;4.72;3.60;;;;;;;18.80;47.32;99471.34;5033465;28;20052;-77
2022/12/10 09:43:02;;;;;;;5.93;3.75;;;;;;;18.81;47.30;99478.38;5035071;28;20045;-77
2022/12/10 09:45:37;;;;;;;5.13;3.58;;;;;;;18.81;47.18;99472.19;5034848;28;20037;-77
2022/12/10 09:48:16;;;;;;;5.35;4.22;;;;;;;18.82;47.50;99463.97;5034501;28;20045;-77
2022/12/10 09:51:00;;;;;;;5.68;3.50;;;;;;;18.83;47.15;99462.13;5034676;28;20405;-77
2022/12/10 09:53:29;;;;;;;6.03;3.40;;;;;;;18.82;47.35;99453.22;5034495;28;20432;-79
2022/12/10 09:55:58;;;;;;;6.82;3.70;;;;;;;18.84;47.91;99450.38;5034460;28;20046;-79
2022/12/10 09:58:27;;;;;;;6.07;4.30;;;;;;;18.85;47.19;99449.41;5034273;28;20041;-78
2022/12/10 10:01:03;;;;;;;6.60;4.82;;;;;;;18.85;47.43;99450.22;5034423;28;20049;-78
2022/12/10 10:03:48;;;;;;;11.13;4.88;;;;;;;18.84;47.42;99445.00;5034005;28;20056;-77
2022/12/10 10:06:16;;;;;;;8.75;4.80;;;;;;;18.86;47.46;99440.34;5035232;28;20045;-78
2022/12/10 10:08:51;;;;;;;9.60;7.75;;;;;;;18.87;45.62;99439.34;5033216;28;20049;-78
2022/12/10 10:11:22;;;;;;;11.43;9.55;;;;;;;18.86;45.08;99426.94;5034335;28;20492;-78
2022/12/10 10:13:55;;;;;;;12.88;7.75;;;;;;;18.86;46.04;99432.31;5033103;28;20038;-76
2022/12/10 10:17:00;;;;;;;12.40;8.40;;;;;;;18.86;45.51;99433.13;5034054;28;20405;-78
2022/12/10 10:19:32;;;;;;;8.65;6.80;;;;;;;18.86;46.26;99418.91;4922022;29;20055;-80
2022/12/10 10:22:01;;;;;;;7.45;6.45;;;;;;;18.87;46.55;99416.03;4954125;29;20059;-79
2022/12/10 10:24:35;;;;;;;8.13;5.53;;;;;;;18.89;46.85;99415.91;4953310;29;20055;-81
2022/12/10 10:27:14;;;;;;;7.15;5.22;;;;;;;18.88;46.84;99414.19;4953818;29;20047;-77
2022/12/10 10:29:44;;;;;;;6.97;5.55;;;;;;;18.89;46.59;99403.31;4945405;29;20059;-77
2022/12/10 10:32:14;;;;;;;8.20;5.72;;;;;;;18.89;46.16;99402.50;4950965;29;20078;-77
2022/12/10 10:34:42;;;;;;;8.65;5.47;;;;;;;18.89;46.88;99400.66;4953888;29;20047;-77
2022/12/10 10:37:20;;;;;;;6.82;5.25;;;;;;;18.90;47.23;99396.94;4953801;29;20050;-77
2022/12/10 10:39:50;;;;;;;5.97;4.60;;;;;;;18.90;46.90;99396.13;4950991;29;20440;-77
2022/12/10 10:42:40;;;;;;;5.03;4.15;;;;;;;18.90;46.69;99388.06;4952418;29;20062;-77
2022/12/10 10:45:34;;;;;;;7.40;4.47;;;;;;;18.91;46.80;99377.16;4952881;29;20070;-75
2022/12/10 10:48:23;;;;;;;5.35;4.25;;;;;;;18.91;47.00;99382.53;4953565;29;20070;-76
2022/12/10 10:51:04;;;;;;;7.30;5.30;;;;;;;18.91;46.52;99374.50;4953130;29;20051;-76
2022/12/10 10:53:33;;;;;;;9.55;5.28;;;;;;;18.90;46.79;99366.63;4953211;29;20063;-76
2022/12/10 10:56:17;;;;;;;8.20;5.00;;;;;;;18.91;46.47;99371.81;5006232;28;20490;-76
2022/12/10 10:58:50;;;;;;;6.93;4.65;;;;;;;18.91;46.65;99370.97;5013497;28;20410;-77
2022/12/10 11:01:18;;;;;;;6.90;4.47;;;;;;;18.90;46.65;99361.25;5013579;28;20046;-79
2022/12/10 11:03:49;;;;;;;6.40;4.63;;;;;;;18.91;46.42;99360.25;5014038;28;20042;-77
2022/12/10 11:06:17;;;;;;;5.43;4.45;;;;;;;18.90;46.53;99356.72;5013518;28;20409;-77
2022/12/10 11:08:46;;;;;;;6.35;4.28;;;;;;;18.89;46.39;99349.69;5013418;28;20049;-77
2022/12/10 11:11:24;;;;;;;5.53;4.05;;;;;;;18.90;46.32;99347.84;5013806;28;20046;-77
2022/12/10 11:13:51;;;;;;;6.15;4.20;;;;;;;18.90;46.45;99347.84;5017952;28;20045;-77
2022/12/10 11:16:18;;;;;;;5.20;4.40;;;;;;;18.91;46.47;99357.56;5033277;28;20042;-77
2022/12/10 11:19:05;;;;;;;7.03;4.65;;;;;;;18.89;46.38;99344.34;5033397;28;20049;-78
2022/12/10 11:21:34;;;;;;;6.32;4.60;;;;;;;18.90;46.80;99343.31;5032781;28;20061;-77
2022/12/10 11:24:11;;;;;;;7.10;4.60;;;;;;;18.89;46.76;99347.00;5032912;28;20041;-77
2022/12/10 11:26:38;;;;;;;9.68;4.70;;;;;;;18.89;46.40;99347.00;5033912;28;20045;-77
2022/12/10 11:29:16;;;;;;;5.82;4.53;;;;;;;18.91;46.33;99347.66;5036917;28;20068;-77
2022/12/10 11:32:03;;;;;;;5.88;5.07;;;;;;;18.89;46.56;99340.81;5036703;28;20045;-77
2022/12/10 11:34:44;;;;;;;5.93;4.88;;;;;;;18.89;46.90;99332.78;5037219;28;20049;-76
2022/12/10 11:37:18;;;;;;;7.03;5.00;;;;;;;18.90;46.39;99326.41;5036597;28;20045;-77
2022/12/10 11:39:49;;;;;;;6.07;5.25;;;;;;;18.90;46.74;99316.50;5036696;28;20049;-77
2022/12/10 11:42:32;;;;;;;6.05;5.40;;;;;;;18.90;46.24;99315.66;5035776;28;20053;-77
2022/12/10 11:45:36;;;;;;;5.95;5.32;;;;;;;18.91;46.66;99318.16;5029674;28;20038;-79
2022/12/10 11:48:25;;;;;;;7.95;5.05;;;;;;;18.89;46.90;99309.47;5016087;28;20045;-78
2022/12/10 11:50:59;;;;;;;6.65;4.60;;;;;;;18.90;46.96;99297.72;5017272;28;20053;-79
2022/12/10 11:53:29;;;;;;;5.75;4.80;;;;;;;18.90;46.69;99307.63;5017147;28;20057;-80
2022/12/10 11:56:02;;;;;;;5.20;4.68;;;;;;;18.90;46.74;99297.72;5016899;28;20405;-79
2022/12/10 11:58:48;;;;;;;;;;;;;;;18.91;46.74;99301.25;5017388;28;20069;-79
2022/12/10 12:01:18;;;;;;;5.53;4.80;;;;;;;18.90;46.40;99297.72;5016811;28;19928;-79
2022/12/10 12:03:49;;;;;;;8.63;5.40;;;;;;;18.89;46.75;99296.06;5016478;28;20049;-77